Time;durP1;ratioP1;P1;durP2;ratioP2;P2;SDS_P1;SDS_P2;PMS_P1;PMS_P2;Temp;Humidity;BMP_temperature;BMP_pressure;BME280_temperature;BME280_humidity;BME280_pressure;Samples;Min_cycle;Max_cycle;Signal;HPM_P1;HPM_P2
2022/09/18 00:02:10;;;;;;;;;;;17.70;47.10;;;;;;6121265;23;20316;-66
2022/09/18 00:04:36;;;;;;;;;;;17.70;47.30;;;;;;6121578;23;19952;-66
2022/09/18 00:07:03;;;;;;;;;;;17.70;47.20;;;;;;6121379;23;19909;-68
2022/09/18 00:09:30;;;;;;;;;;;17.70;47.40;;;;;;6121784;23;19917;-68
2022/09/18 00:11:58;;;;;;;;;;;17.80;47.30;;;;;;6121627;23;19909;-68
2022/09/18 00:14:25;;;;;;;;;;;17.80;46.80;;;;;;6121835;23;19913;-68
2022/09/18 00:16:52;;;;;;;;;;;17.80;46.90;;;;;;6121531;23;19909;-69
2022/09/18 00:19:19;;;;;;;;;;;17.80;46.90;;;;;;6096047;23;19940;-69
2022/09/18 00:21:46;;;;;;;;;;;17.90;46.90;;;;;;6120772;23;19909;-69
2022/09/18 00:24:12;;;;;;;;;;;17.90;47.20;;;;;;6122150;23;19941;-69
2022/09/18 00:26:39;;;;;;;;;;;18.00;48.50;;;;;;6121970;23;19913;-69
2022/09/18 00:29:06;;;;;;;;;;;18.00;48.10;;;;;;6096013;23;19995;-69
2022/09/18 00:31:33;;;;;;;;;;;18.00;48.70;;;;;;6093837;23;19913;-69
2022/09/18 00:34:01;;;;;;;;;;;18.20;47.40;;;;;;6121343;23;19916;-69
2022/09/18 00:36:31;;;;;;;;;;;18.20;47.30;;;;;;6121750;23;19932;-69
2022/09/18 00:39:01;;;;;;;;;;;18.20;48.00;;;;;;6121831;23;19916;-69
2022/09/18 00:41:29;;;;;;;;;;;18.30;47.10;;;;;;6096542;23;19909;-69
2022/09/18 00:44:16;;;;;;;;;;;18.30;46.70;;;;;;6096179;23;19905;-69
2022/09/18 00:46:43;;;;;;;;;;;18.40;47.20;;;;;;6061021;23;19944;-69
2022/09/18 00:49:14;;;;;;;;;;;18.40;47.10;;;;;;6094919;23;19921;-69
2022/09/18 00:51:40;;;;;;;;;;;18.40;47.00;;;;;;6119924;23;19905;-69
2022/09/18 00:54:09;;;;;;;;;;;18.40;47.00;;;;;;6121799;23;19913;-76
2022/09/18 00:56:36;;;;;;;;;;;18.40;47.20;;;;;;6120991;23;20625;-76
2022/09/18 00:59:03;;;;;;;;;;;18.40;47.80;;;;;;6121828;23;20320;-76
2022/09/18 01:01:29;;;;;;;;;;;18.50;46.90;;;;;;6119924;23;20610;-76
2022/09/18 01:03:56;;;;;;;;;;;18.50;46.00;;;;;;6121998;23;19920;-77
2022/09/18 01:06:43;;;;;;;;;;;18.70;46.10;;;;;;6123961;23;20244;-75
2022/09/18 01:09:18;;;;;;;;;;;18.70;45.00;;;;;;6122987;23;19917;-78
2022/09/18 01:11:44;;;;;;;;;;;18.70;45.60;;;;;;6097172;23;19920;-77
2022/09/18 01:14:11;;;;;;;;;;;18.70;46.30;;;;;;6123085;23;19909;-77
2022/09/18 01:16:44;;;;;;;;;;;18.70;45.90;;;;;;6123519;23;19913;-77
2022/09/18 01:19:17;;;;;;;;;;;18.80;46.80;;;;;;6097542;23;20385;-76
2022/09/18 01:21:44;;;;;;;;;;;18.80;45.80;;;;;;6122927;23;19981;-77
2022/09/18 01:24:13;;;;;;;;;;;18.80;45.50;;;;;;6096322;23;19943;-77
2022/09/18 01:26:55;;;;;;;;;;;18.80;45.50;;;;;;6123173;23;19937;-79
2022/09/18 01:29:34;;;;;;;;;;;18.80;45.50;;;;;;6097438;23;19928;-72
2022/09/18 01:32:07;;;;;;;;;;;18.90;45.80;;;;;;6121112;23;19904;-74
2022/09/18 01:34:52;;;;;;;;;;;18.90;46.10;;;;;;6123173;23;19916;-80
2022/09/18 01:37:20;;;;;;;;;;;18.90;45.80;;;;;;6123293;23;20021;-81
2022/09/18 01:39:50;;;;;;;;;;;19.00;45.10;;;;;;6096957;23;19909;-73
2022/09/18 01:42:17;;;;;;;;;;;19.00;45.10;;;;;;6097203;23;20283;-74
2022/09/18 01:44:44;;;;;;;;;;;19.00;45.70;;;;;;6097447;23;19943;-76
2022/09/18 01:47:11;;;;;;;;;;;19.20;45.70;;;;;;6123159;23;19920;-72
2022/09/18 01:49:43;;;;;;;;;;;19.20;45.70;;;;;;6097026;23;19955;-72
2022/09/18 01:52:11;;;;;;;;;;;19.20;45.60;;;;;;6122816;23;19905;-72
2022/09/18 01:54:38;;;;;;;;;;;19.20;44.90;;;;;;6123461;23;20399;-71
2022/09/18 01:57:12;;;;;;;;;;;19.10;44.80;;;;;;6096724;23;19912;-71
2022/09/18 01:59:43;;;;;;;;;;;19.10;44.30;;;;;;6096635;23;20284;-73
2022/09/18 02:02:12;;;;;;;;;;;19.10;44.00;;;;;;6120796;23;19905;-72
2022/09/18 02:04:38;;;;;;;;;;;19.20;43.90;;;;;;6097008;23;19916;-73
2022/09/18 02:07:14;;;;;;;;;;;19.20;44.50;;;;;;6122264;23;19913;-73
2022/09/18 02:34:07;;;;;;;;;;;19.40;45.00;;;;;;6097836;23;19928;-75
2022/09/18 02:36:59;;;;;;;;;;;19.40;44.80;;;;;;6044129;23;20249;-75
2022/09/18 02:39:35;;;;;;;;;;;19.40;44.80;;;;;;6087358;23;19937;-75
2022/09/18 02:42:14;;;;;;;;;;;19.40;44.90;;;;;;6092695;23;19919;-72
2022/09/18 02:44:41;;;;;;;;;;;19.40;45.50;;;;;;6092829;23;19912;-75
2022/09/18 02:47:18;;;;;;;;;;;19.40;45.30;;;;;;6092626;23;19916;-75
2022/09/18 02:50:03;;;;;;;;;;;19.40;45.00;;;;;;6067382;23;20337;-75
2022/09/18 02:52:32;;;;;;;;;;;19.50;44.10;;;;;;6092409;23;19937;-74
2022/09/18 02:55:04;;;;;;;;;;;19.50;43.40;;;;;;6067456;23;19916;-75
2022/09/18 02:57:36;;;;;;;;;;;19.60;43.50;;;;;;6067127;23;19915;-75
2022/09/18 03:00:03;;;;;;;;;;;19.60;42.90;;;;;;6067055;23;19913;-75
2022/09/18 03:02:29;;;;;;;;;;;19.60;43.60;;;;;;6066555;23;19912;-75
2022/09/18 03:04:56;;;;;;;;;;;19.70;43.20;;;;;;6066610;23;19913;-74
2022/09/18 03:07:22;;;;;;;;;;;19.70;43.10;;;;;;6070047;23;19909;-69
2022/09/18 03:09:49;;;;;;;;;;;19.70;41.80;;;;;;6070583;23;19913;-70
2022/09/18 03:12:16;;;;;;;;;;;19.80;41.20;;;;;;6095886;23;20299;-70
2022/09/18 03:14:42;;;;;;;;;;;19.80;41.30;;;;;;6070684;23;19905;-71
2022/09/18 03:17:09;;;;;;;;;;;19.90;41.40;;;;;;6095769;23;19957;-69
2022/09/18 03:19:36;;;;;;;;;;;20.00;41.60;;;;;;6070374;23;19912;-70
2022/09/18 03:22:03;;;;;;;;;;;20.00;41.90;;;;;;6095244;23;19912;-70
2022/09/18 03:24:30;;;;;;;;;;;20.00;42.40;;;;;;6095700;23;19905;-70
2022/09/18 03:26:56;;;;;;;;;;;20.00;41.90;;;;;;6095962;23;20006;-70
2022/09/18 03:29:23;;;;;;;;;;;19.90;42.10;;;;;;6095752;23;19910;-70
2022/09/18 03:31:49;;;;;;;;;;;20.00;41.50;;;;;;6067869;23;20256;-69
2022/09/18 03:34:16;;;;;;;;;;;20.00;41.40;;;;;;6095438;23;19917;-69
2022/09/18 03:36:42;;;;;;;;;;;20.00;41.30;;;;;;6067178;23;19913;-67
2022/09/18 03:39:09;;;;;;;;;;;20.00;42.00;;;;;;6092838;23;19961;-67
2022/09/18 03:41:36;;;;;;;;;;;19.90;40.60;;;;;;6093118;23;19980;-66
2022/09/18 03:44:02;;;;;;;;;;;19.80;40.70;;;;;;6092843;23;19905;-66
2022/09/18 03:46:29;;;;;;;;;;;19.80;39.90;;;;;;6092526;23;20348;-65
2022/09/18 03:48:56;;;;;;;;;;;19.80;40.60;;;;;;6090450;23;19917;-65
2022/09/18 03:51:22;;;;;;;;;;;19.90;41.10;;;;;;6092644;23;19939;-67
2022/09/18 03:53:51;;;;;;;;;;;20.00;42.10;;;;;;6067203;23;19912;-67
2022/09/18 03:56:18;;;;;;;;;;;20.00;41.40;;;;;;6067620;23;20008;-66
2022/09/18 03:58:44;;;;;;;;;;;20.00;41.40;;;;;;6092551;23;19931;-69
2022/09/18 04:01:12;;;;;;;;;;;20.00;42.80;;;;;;6092757;23;19917;-69
2022/09/18 04:03:39;;;;;;;;;;;20.10;41.90;;;;;;6092842;23;19943;-72
2022/09/18 04:06:06;;;;;;;;;;;20.10;41.50;;;;;;6091363;23;19946;-71
2022/09/18 04:08:33;;;;;;;;;;;20.20;41.10;;;;;;6092028;23;19913;-71
2022/09/18 04:10:59;;;;;;;;;;;20.20;40.60;;;;;;6093263;23;19913;-72
2022/09/18 04:13:26;;;;;;;;;;;20.20;41.10;;;;;;6092639;23;19909;-70
2022/09/18 04:15:53;;;;;;;;;;;20.20;41.60;;;;;;6092625;23;19913;-70
2022/09/18 04:18:19;;;;;;;;;;;20.20;41.40;;;;;;6092021;23;19916;-73
2022/09/18 04:20:46;;;;;;;;;;;20.20;40.50;;;;;;6092261;23;19909;-71
2022/09/18 04:23:13;;;;;;;;;;;20.20;40.90;;;;;;6092631;23;19906;-71
2022/09/18 04:25:40;;;;;;;;;;;20.20;40.30;;;;;;6092283;23;20532;-70
2022/09/18 04:28:06;;;;;;;;;;;20.20;39.70;;;;;;6092136;23;19917;-70
2022/09/18 04:30:33;;;;;;;;;;;20.20;40.30;;;;;;6091970;23;20576;-70
2022/09/18 04:33:00;;;;;;;;;;;20.30;40.00;;;;;;6068621;23;19925;-69
2022/09/18 04:35:27;;;;;;;;;;;20.20;39.50;;;;;;6119127;23;19917;-70
2022/09/18 04:37:53;;;;;;;;;;;20.30;39.80;;;;;;6122303;23;20074;-70
2022/09/18 04:40:20;;;;;;;;;;;20.30;39.60;;;;;;6123636;23;19905;-70
2022/09/18 04:42:46;;;;;;;;;;;20.30;40.00;;;;;;6122852;23;19909;-70
2022/09/18 04:45:13;;;;;;;;;;;20.30;40.10;;;;;;6096997;23;19916;-70
2022/09/18 04:47:42;;;;;;;;;;;20.30;39.70;;;;;;6120802;23;19909;-71
2022/09/18 04:50:12;;;;;;;;;;;20.30;40.70;;;;;;6123436;23;19917;-70
2022/09/18 04:52:38;;;;;;;;;;;20.30;40.50;;;;;;6123301;23;19913;-70
2022/09/18 04:55:05;;;;;;;;;;;20.30;39.70;;;;;;6122763;23;20534;-70
2022/09/18 04:57:32;;;;;;;;;;;20.40;39.90;;;;;;6123327;23;19909;-71
2022/09/18 04:59:58;;;;;;;;;;;20.30;40.30;;;;;;6123257;23;19923;-70
2022/09/18 05:02:25;;;;;;;;;;;20.30;39.50;;;;;;6123510;23;19972;-70
2022/09/18 05:04:52;;;;;;;;;;;20.40;39.30;;;;;;6123096;23;19991;-70
2022/09/18 05:07:19;;;;;;;;;;;20.40;38.40;;;;;;6121236;23;19984;-70
2022/09/18 05:09:46;;;;;;;;;;;20.40;38.00;;;;;;6123273;23;19917;-71
2022/09/18 05:12:12;;;;;;;;;;;20.30;39.30;;;;;;6122993;23;20374;-70
2022/09/18 05:14:39;;;;;;;;;;;20.40;39.20;;;;;;6123003;23;19912;-68
2022/09/18 05:17:05;;;;;;;;;;;20.40;39.80;;;;;;6123416;23;19916;-71
2022/09/18 05:19:32;;;;;;;;;;;20.30;39.10;;;;;;6123697;23;19909;-71
2022/09/18 05:21:58;;;;;;;;;;;20.40;39.30;;;;;;6122916;23;19964;-71
2022/09/18 05:24:25;;;;;;;;;;;20.40;39.40;;;;;;6122688;23;19922;-70
2022/09/18 05:26:52;;;;;;;;;;;20.30;39.10;;;;;;6122541;23;19913;-71
2022/09/18 05:29:18;;;;;;;;;;;20.40;39.00;;;;;;6123249;23;19940;-70
2022/09/18 06:06:41;;;;;;;;;;;20.30;37.60;;;;;;6115000;23;20006;-70
2022/09/18 06:09:08;;;;;;;;;;;20.20;38.30;;;;;;6093090;23;19931;-71
2022/09/18 06:11:35;;;;;;;;;;;20.20;38.40;;;;;;6093889;23;19920;-71
2022/09/18 06:14:01;;;;;;;;;;;20.20;38.50;;;;;;6093793;23;19909;-70
2022/09/18 06:16:28;;;;;;;;;;;20.10;38.80;;;;;;6093643;23;19909;-70
2022/09/18 06:18:54;;;;;;;;;;;20.10;39.30;;;;;;6093090;23;19909;-71
2022/09/18 06:21:21;;;;;;;;;;;20.10;39.20;;;;;;6093794;23;20310;-71
2022/09/18 06:23:47;;;;;;;;;;;20.00;39.60;;;;;;6093439;23;20336;-70
2022/09/18 06:26:14;;;;;;;;;;;20.00;39.70;;;;;;6093190;23;20675;-70
2022/09/18 06:28:41;;;;;;;;;;;20.00;39.00;;;;;;6093047;23;19910;-70
2022/09/18 06:31:08;;;;;;;;;;;20.00;39.10;;;;;;6093242;23;20425;-69
2022/09/18 06:33:35;;;;;;;;;;;20.00;39.20;;;;;;6067625;23;19913;-70
2022/09/18 06:36:07;;;;;;;;;;;19.90;39.50;;;;;;6067475;23;20021;-70
2022/09/18 06:38:33;;;;;;;;;;;19.90;39.90;;;;;;6091424;23;20287;-71
2022/09/18 06:41:00;;;;;;;;;;;19.90;39.80;;;;;;6092955;23;20286;-71
2022/09/18 06:43:26;;;;;;;;;;;19.80;40.00;;;;;;6092735;23;19905;-71
2022/09/18 06:45:53;;;;;;;;;;;19.80;40.40;;;;;;6092713;23;19909;-71
2022/09/18 06:48:20;;;;;;;;;;;19.80;40.20;;;;;;6090728;23;20317;-71
2022/09/18 06:50:56;;;;;;;;;;;19.80;40.10;;;;;;6093029;23;19917;-71
2022/09/18 06:53:23;;;;;;;;;;;19.80;40.30;;;;;;6093403;23;20699;-70
2022/09/18 06:55:49;;;;;;;;;;;19.80;40.20;;;;;;6091222;23;20329;-70
2022/09/18 06:58:16;;;;;;;;;;;19.70;39.90;;;;;;6093106;23;19932;-71
2022/09/18 07:00:43;;;;;;;;;;;19.70;40.00;;;;;;6093379;23;19957;-70
2022/09/18 07:03:10;;;;;;;;;;;19.70;39.90;;;;;;6067346;23;20020;-70
2022/09/18 07:05:40;;;;;;;;;;;19.60;40.10;;;;;;6092798;23;19913;-70
2022/09/18 07:08:06;;;;;;;;;;;19.60;40.30;;;;;;6100147;23;19921;-70
2022/09/18 07:10:33;;;;;;;;;;;19.60;39.80;;;;;;6093029;23;20361;-70
2022/09/18 07:13:01;;;;;;;;;;;19.60;39.70;;;;;;6092893;23;19968;-71
2022/09/18 07:15:27;;;;;;;;;;;19.60;40.10;;;;;;6092458;23;19964;-72
2022/09/18 07:17:57;;;;;;;;;;;19.50;40.20;;;;;;6092305;23;19996;-72
2022/09/18 07:20:24;;;;;;;;;;;19.50;40.10;;;;;;6092336;23;19953;-70
2022/09/18 07:22:52;;;;;;;;;;;19.50;40.90;;;;;;6092800;23;19948;-69
2022/09/18 07:25:18;;;;;;;;;;;19.40;40.80;;;;;;6092667;23;19905;-71
2022/09/18 07:27:45;;;;;;;;;;;19.40;40.20;;;;;;6091912;23;19909;-72
2022/09/18 07:30:11;;;;;;;;;;;19.40;40.30;;;;;;6092716;23;20350;-70
2022/09/18 07:32:38;;;;;;;;;;;19.30;40.20;;;;;;6092562;23;19920;-70
2022/09/18 07:35:05;;;;;;;;;;;19.30;40.10;;;;;;6092287;23;19960;-70
2022/09/18 07:37:32;;;;;;;;;;;19.30;40.00;;;;;;6091078;23;20293;-69
2022/09/18 07:39:59;;;;;;;;;;;19.30;40.10;;;;;;6090710;23;19913;-69
2022/09/18 07:42:26;;;;;;;;;;;19.20;40.50;;;;;;6092494;23;20415;-70
2022/09/18 07:44:52;;;;;;;;;;;19.20;40.80;;;;;;6092049;23;19914;-70
2022/09/18 07:47:19;;;;;;;;;;;19.10;40.30;;;;;;6092271;23;19916;-70
2022/09/18 07:49:46;;;;;;;;;;;19.10;40.20;;;;;;6089483;23;20313;-69
2022/09/18 07:52:12;;;;;;;;;;;19.10;40.00;;;;;;6091573;23;20249;-68
2022/09/18 07:54:39;;;;;;;;;;;19.00;40.60;;;;;;6092275;23;20198;-71
2022/09/18 07:57:05;;;;;;;;;;;19.00;40.80;;;;;;6090219;23;19933;-71
2022/09/18 07:59:32;;;;;;;;;;;18.90;40.80;;;;;;6092263;23;19905;-71
2022/09/18 08:01:58;;;;;;;;;;;18.90;40.70;;;;;;6092173;23;19906;-71
2022/09/18 08:04:25;;;;;;;;;;;18.90;40.90;;;;;;6092674;23;20253;-71
2022/09/18 08:06:52;;;;;;;;;;;18.90;41.30;;;;;;6092293;23;19917;-70
2022/09/18 08:09:19;;;;;;;;;;;18.80;40.80;;;;;;6113411;23;19928;-71
2022/09/18 08:11:45;;;;;;;;;;;18.80;41.20;;;;;;6121300;23;19908;-69
2022/09/18 08:14:12;;;;;;;;;;;18.80;41.60;;;;;;6121241;23;19912;-69
2022/09/18 08:16:38;;;;;;;;;;;18.80;41.30;;;;;;6121709;23;19917;-68
2022/09/18 08:19:05;;;;;;;;;;;18.70;41.30;;;;;;6120944;23;20005;-70
2022/09/18 08:21:31;;;;;;;;;;;18.70;41.90;;;;;;6121397;23;19909;-70
2022/09/18 08:23:58;;;;;;;;;;;18.70;42.00;;;;;;6121318;23;19909;-67
2022/09/18 08:26:25;;;;;;;;;;;18.70;42.00;;;;;;6121979;23;19913;-68
2022/09/18 08:28:51;;;;;;;;;;;18.70;42.30;;;;;;6121475;23;19917;-69
2022/09/18 08:31:18;;;;;;;;;;;18.70;42.50;;;;;;6121202;23;19904;-67
2022/09/18 08:33:44;;;;;;;;;;;18.60;42.30;;;;;;6121938;23;19909;-66
2022/09/18 08:36:11;;;;;;;;;;;18.60;42.50;;;;;;6121701;23;19920;-68
2022/09/18 08:38:37;;;;;;;;;;;18.50;43.00;;;;;;6122001;23;19913;-66
2022/09/18 08:41:25;;;;;;;;;;;18.50;42.50;;;;;;6119467;23;19909;-67
2022/09/18 08:44:03;;;;;;;;;;;18.50;42.80;;;;;;6095872;23;19999;-67
2022/09/18 08:46:31;;;;;;;;;;;18.50;42.70;;;;;;6121230;23;19913;-67
2022/09/18 09:42:46;;;;;;;;;;;18.00;44.20;;;;;;6093515;23;19929;-69
2022/09/18 09:45:33;;;;;;;;;;;17.90;44.00;;;;;;6071258;23;20335;-69
2022/09/18 09:48:06;;;;;;;;;;;17.90;43.70;;;;;;6071296;23;19905;-69
2022/09/18 09:50:38;;;;;;;;;;;17.90;44.20;;;;;;6071479;23;20341;-69
2022/09/18 09:53:08;;;;;;;;;;;17.90;44.80;;;;;;6097259;23;19937;-69
2022/09/18 09:55:47;;;;;;;;;;;17.90;44.70;;;;;;6097217;23;20309;-70
2022/09/18 09:58:14;;;;;;;;;;;17.90;45.00;;;;;;6071447;23;19905;-69
2022/09/18 10:01:13;;;;;;;;;;;17.80;45.40;;;;;;6096769;23;19909;-69
2022/09/18 10:03:48;;;;;;;;;;;17.80;45.70;;;;;;6032926;23;19955;-69
2022/09/18 10:06:27;;;;;;;;;;;17.80;46.30;;;;;;6096675;23;20325;-69
2022/09/18 10:09:01;;;;;;;;;;;17.80;46.50;;;;;;6096902;23;19917;-69
2022/09/18 10:11:27;;;;;;;;;;;17.70;46.20;;;;;;6069565;23;19909;-69
2022/09/18 10:13:55;;;;;;;;;;;17.70;46.00;;;;;;6096622;23;19917;-69
2022/09/18 10:16:29;;;;;;;;;;;17.70;45.70;;;;;;6071441;23;19906;-70
2022/09/18 10:18:56;;;;;;;;;;;17.70;47.20;;;;;;6096449;23;20233;-70
2022/09/18 10:21:23;;;;;;;;;;;17.60;45.80;;;;;;6096020;23;19909;-70
2022/09/18 10:23:50;;;;;;;;;;;17.60;45.30;;;;;;6071208;23;19988;-70
2022/09/18 10:26:22;;;;;;;;;;;17.60;46.10;;;;;;6096760;23;19940;-69
2022/09/18 10:28:49;;;;;;;;;;;17.50;45.80;;;;;;6047232;23;20285;-72
2022/09/18 10:31:16;;;;;;;;;;;17.50;46.00;;;;;;6096717;23;20233;-69
2022/09/18 10:33:43;;;;;;;;;;;17.40;46.90;;;;;;6071138;23;19910;-69
2022/09/18 10:36:30;;;;;;;;;;;17.40;46.30;;;;;;6071049;23;20004;-69
2022/09/18 10:38:57;;;;;;;;;;;17.30;47.80;;;;;;6095418;23;19933;-69
2022/09/18 10:41:43;;;;;;;;;;;17.30;46.40;;;;;;6081756;23;19984;-69
2022/09/18 10:44:20;;;;;;;;;;;17.30;46.50;;;;;;6124530;23;20012;-69
2022/09/18 10:46:51;;;;;;;;;;;17.30;46.60;;;;;;6099877;23;20265;-69
2022/09/18 10:49:24;;;;;;;;;;;17.30;46.80;;;;;;6125932;23;20229;-69
2022/09/18 10:52:11;;;;;;;;;;;17.20;47.20;;;;;;6099384;23;19956;-69
2022/09/18 10:54:38;;;;;;;;;;;17.20;46.60;;;;;;6105499;23;19931;-69
2022/09/18 10:57:23;;;;;;;;;;;17.20;46.40;;;;;;6099106;23;20313;-69
2022/09/18 10:59:49;;;;;;;;;;;17.20;47.30;;;;;;6125435;23;20240;-69
2022/09/18 11:02:16;;;;;;;;;;;17.10;45.40;;;;;;6125187;23;19916;-69
2022/09/18 11:04:46;;;;;;;;;;;17.10;46.40;;;;;;6125000;23;19905;-69
2022/09/18 11:07:13;;;;;;;;;;;17.00;47.00;;;;;;6099435;23;19908;-69
2022/09/18 11:09:40;;;;;;;;;;;17.00;46.70;;;;;;6099714;23;19940;-69
2022/09/18 12:14:04;;;;;;;;;;;16.70;50.90;;;;;;6113137;23;19928;-70
2022/09/18 12:16:39;;;;;;;;;;;16.70;52.40;;;;;;6095121;23;20016;-70
2022/09/18 12:19:27;;;;;;;;;;;16.70;51.20;;;;;;6069934;23;19909;-70
2022/09/18 12:22:02;;;;;;;;;;;16.70;51.20;;;;;;6070715;23;19913;-70
2022/09/18 12:24:29;;;;;;;;;;;16.70;51.40;;;;;;6069772;23;19911;-72
2022/09/18 12:26:58;;;;;;;;;;;16.70;51.80;;;;;;6095261;23;20321;-69
2022/09/18 12:29:35;;;;;;;;;;;16.70;51.90;;;;;;6095451;23;20380;-69
2022/09/18 12:32:01;;;;;;;;;;;16.70;52.00;;;;;;6070157;23;19913;-70
2022/09/18 12:34:43;;;;;;;;;;;16.70;53.00;;;;;;6095151;23;19935;-70
2022/09/18 12:37:10;;;;;;;;;;;16.70;52.50;;;;;;6070205;23;19906;-70
2022/09/18 12:39:39;;;;;;;;;;;16.70;52.00;;;;;;6095539;23;19985;-70
2022/09/18 12:42:14;;;;;;;;;;;16.60;51.90;;;;;;6095326;23;19906;-70
2022/09/18 12:45:10;;;;;;;;;;;16.60;51.10;;;;;;6093586;23;19961;-70
2022/09/18 12:47:40;;;;;;;;;;;16.70;51.40;;;;;;5992607;23;19911;-70
2022/09/18 12:50:07;;;;;;;;;;;16.60;51.90;;;;;;6069784;23;19913;-69
2022/09/18 12:52:47;;;;;;;;;;;16.60;51.00;;;;;;6095522;23;19937;-69
2022/09/18 12:55:13;;;;;;;;;;;16.60;51.50;;;;;;6069703;23;19906;-69
2022/09/18 12:57:47;;;;;;;;;;;16.60;51.40;;;;;;6095488;23;19916;-70
2022/09/18 13:00:14;;;;;;;;;;;16.60;51.60;;;;;;6071527;23;19957;-69
2022/09/18 13:02:54;;;;;;;;;;;16.60;51.90;;;;;;6098102;23;19905;-70
2022/09/18 13:05:44;;;;;;;;;;;16.60;53.60;;;;;;6072247;23;19913;-70
2022/09/18 13:08:12;;;;;;;;;;;16.60;52.90;;;;;;6082698;23;19916;-71
2022/09/18 13:10:39;;;;;;;;;;;16.50;53.20;;;;;;6072376;23;19976;-70
2022/09/18 13:13:06;;;;;;;;;;;16.50;52.40;;;;;;6097876;23;19916;-69
2022/09/18 13:15:35;;;;;;;;;;;16.50;53.20;;;;;;6105693;23;19944;-70
2022/09/18 13:18:14;;;;;;;;;;;16.50;53.50;;;;;;6071459;23;20288;-69
2022/09/18 13:20:42;;;;;;;;;;;16.30;54.70;;;;;;6071572;23;19906;-70
2022/09/18 13:23:28;;;;;;;;;;;16.30;54.80;;;;;;6071857;23;19906;-70
2022/09/18 13:25:55;;;;;;;;;;;16.30;54.90;;;;;;6072085;23;20322;-69
2022/09/18 13:28:21;;;;;;;;;;;16.30;54.60;;;;;;6071820;23;19905;-70
2022/09/18 13:30:50;;;;;;;;;;;16.30;53.60;;;;;;6047883;23;20234;-69
2022/09/18 13:33:23;;;;;;;;;;;16.30;54.60;;;;;;6097072;23;19905;-70
2022/09/18 13:35:54;;;;;;;;;;;16.20;54.40;;;;;;6096872;23;19905;-69
2022/09/18 13:38:21;;;;;;;;;;;16.20;55.30;;;;;;6071789;23;19921;-69
2022/09/18 13:41:01;;;;;;;;;;;16.20;54.70;;;;;;6071716;23;19913;-70
2022/09/18 13:43:27;;;;;;;;;;;16.20;54.90;;;;;;6071730;23;19937;-69
2022/09/18 13:45:58;;;;;;;;;;;16.20;55.10;;;;;;6095611;23;19931;-70
2022/09/18 13:48:28;;;;;;;;;;;16.20;55.90;;;;;;6071298;23;19999;-70
2022/09/18 13:50:55;;;;;;;;;;;16.10;55.00;;;;;;6096842;23;19917;-69
2022/09/18 13:53:42;;;;;;;;;;;16.10;55.20;;;;;;6096886;23;20206;-70
2022/09/18 13:56:12;;;;;;;;;;;16.00;54.70;;;;;;6096993;23;19912;-70
2022/09/18 13:58:39;;;;;;;;;;;15.90;55.10;;;;;;6096983;23;19910;-70
2022/09/18 14:01:06;;;;;;;;;;;15.90;54.70;;;;;;6097052;23;19961;-70
2022/09/18 14:03:39;;;;;;;;;;;15.90;55.40;;;;;;6071933;23;19968;-70
2022/09/18 14:06:24;;;;;;;;;;;15.90;54.80;;;;;;6071576;23;19925;-70
2022/09/18 14:08:51;;;;;;;;;;;15.90;55.40;;;;;;6096749;23;19905;-70
2022/09/18 14:11:22;;;;;;;;;;;15.80;55.10;;;;;;6070959;23;19925;-69
2022/09/18 14:13:51;;;;;;;;;;;15.80;55.70;;;;;;6071818;23;19913;-70
2022/09/18 14:16:17;;;;;;;;;;;15.80;55.60;;;;;;6117146;23;20356;-70
2022/09/18 14:18:47;;;;;;;;;;;15.80;55.40;;;;;;6125556;23;19905;-70
2022/09/18 14:21:16;;;;;;;;;;;15.70;55.40;;;;;;6125878;23;19935;-70
2022/09/18 14:23:45;;;;;;;;;;;15.70;56.00;;;;;;6126163;23;20329;-70
2022/09/18 14:26:38;;;;;;;;;;;15.70;56.60;;;;;;6099836;23;20393;-70
2022/09/18 14:29:13;;;;;;;;;;;15.70;56.80;;;;;;6125326;23;19909;-70
2022/09/18 14:31:47;;;;;;;;;;;15.70;56.40;;;;;;6125994;23;19909;-70
2022/09/18 14:34:17;;;;;;;;;;;15.70;56.70;;;;;;6125890;23;19980;-70
2022/09/18 14:36:43;;;;;;;;;;;15.70;56.70;;;;;;6125869;23;19913;-70
2022/09/18 14:39:26;;;;;;;;;;;15.60;56.70;;;;;;6099993;23;19944;-70
2022/09/18 14:41:52;;;;;;;;;;;15.70;57.50;;;;;;6125706;23;19944;-70
2022/09/18 14:44:19;;;;;;;;;;;15.70;57.10;;;;;;6100326;23;19912;-70
2022/09/18 14:46:56;;;;;;;;;;;15.70;57.00;;;;;;6097851;23;19989;-70
2022/09/18 14:49:33;;;;;;;;;;;15.70;57.10;;;;;;6125670;23;19913;-70
2022/09/18 14:52:00;;;;;;;;;;;15.60;57.00;;;;;;6099998;23;20234;-70
2022/09/18 14:54:27;;;;;;;;;;;15.60;56.90;;;;;;6125120;23;19913;-70
2022/09/18 14:56:55;;;;;;;;;;;15.60;57.20;;;;;;6125304;23;20324;-70
2022/09/18 14:59:22;;;;;;;;;;;15.50;57.80;;;;;;6125644;23;19918;-70
2022/09/18 15:01:49;;;;;;;;;;;15.50;58.70;;;;;;6099836;23;19909;-70
2022/09/18 15:04:20;;;;;;;;;;;15.50;59.00;;;;;;6099326;23;19905;-70
2022/09/18 15:06:48;;;;;;;;;;;15.40;59.10;;;;;;6125103;23;19920;-70
2022/09/18 15:09:16;;;;;;;;;;;15.50;59.20;;;;;;6100019;23;19909;-70
2022/09/18 15:11:43;;;;;;;;;;;15.50;59.20;;;;;;6099917;23;20236;-70
2022/09/18 15:14:22;;;;;;;;;;;15.50;58.60;;;;;;6099460;23;19929;-69
2022/09/18 15:16:56;;;;;;;;;;;15.50;58.70;;;;;;6098545;23;19924;-70
2022/09/18 15:19:22;;;;;;;;;;;15.40;58.90;;;;;;6098956;23;19909;-70
2022/09/18 15:21:49;;;;;;;;;;;15.40;59.30;;;;;;6125140;23;19905;-70
2022/09/18 15:24:16;;;;;;;;;;;15.50;59.30;;;;;;6099858;23;19909;-70
2022/09/18 15:26:43;;;;;;;;;;;15.50;58.30;;;;;;6099472;23;19984;-70
2022/09/18 15:29:17;;;;;;;;;;;15.50;59.10;;;;;;6099241;23;20225;-70
2022/09/18 15:31:43;;;;;;;;;;;15.30;59.60;;;;;;6099456;23;19916;-70
2022/09/18 15:34:14;;;;;;;;;;;15.30;60.20;;;;;;6099353;23;19919;-70
2022/09/18 15:36:41;;;;;;;;;;;15.30;60.70;;;;;;6125384;23;19909;-70
2022/09/18 15:39:08;;;;;;;;;;;15.40;59.80;;;;;;6099152;23;19905;-70
2022/09/18 15:47:42;;;;;;;;;;;15.30;59.70;;;;;;6119299;23;20008;-70
2022/09/18 15:50:11;;;;;;;;;;;15.30;60.00;;;;;;6124444;23;19921;-70
2022/09/18 15:52:38;;;;;;;;;;;15.30;59.20;;;;;;6124670;23;19913;-70
2022/09/18 15:55:10;;;;;;;;;;;15.30;59.50;;;;;;6124505;23;19905;-70
2022/09/18 15:57:37;;;;;;;;;;;15.30;59.50;;;;;;6098796;23;19905;-70
2022/09/18 16:00:07;;;;;;;;;;;15.20;59.60;;;;;;6098537;23;19905;-70
2022/09/18 16:02:36;;;;;;;;;;;15.20;59.50;;;;;;6124760;23;19916;-70
2022/09/18 16:05:12;;;;;;;;;;;15.20;59.60;;;;;;6124130;23;20325;-70
2022/09/18 16:07:39;;;;;;;;;;;15.20;60.00;;;;;;6124235;23;19909;-70
2022/09/18 16:10:24;;;;;;;;;;;15.20;60.20;;;;;;6123886;23;20122;-70
2022/09/18 16:12:50;;;;;;;;;;;15.20;60.20;;;;;;6124158;23;19905;-70
2022/09/18 16:15:24;;;;;;;;;;;15.20;61.00;;;;;;6124458;23;19911;-70
2022/09/18 16:17:52;;;;;;;;;;;15.20;61.50;;;;;;6123617;23;19910;-70
2022/09/18 16:20:21;;;;;;;;;;;15.10;60.90;;;;;;6122978;23;19988;-70
2022/09/18 16:22:48;;;;;;;;;;;15.00;61.30;;;;;;6124953;23;20284;-70
2022/09/18 16:25:19;;;;;;;;;;;14.90;62.30;;;;;;6099246;23;19959;-70
2022/09/18 16:27:46;;;;;;;;;;;14.80;62.70;;;;;;6124685;23;20040;-70
2022/09/18 16:30:14;;;;;;;;;;;14.80;63.20;;;;;;6099416;23;19913;-70
2022/09/18 16:32:41;;;;;;;;;;;14.70;63.20;;;;;;6125083;23;19913;-70
2022/09/18 16:35:10;;;;;;;;;;;14.60;63.40;;;;;;6101888;23;20228;-69
2022/09/18 16:37:39;;;;;;;;;;;14.70;63.40;;;;;;6102200;23;19916;-70
2022/09/18 16:40:21;;;;;;;;;;;14.70;63.30;;;;;;6127911;23;19908;-70
2022/09/18 16:42:48;;;;;;;;;;;14.70;63.20;;;;;;6102394;23;19932;-70
2022/09/18 16:45:15;;;;;;;;;;;14.60;63.60;;;;;;6127932;23;19996;-70
2022/09/18 16:47:43;;;;;;;;;;;14.50;64.30;;;;;;6127694;23;19937;-70
2022/09/18 16:50:10;;;;;;;;;;;14.50;64.10;;;;;;6125599;23;19972;-69
2022/09/18 16:52:37;;;;;;;;;;;14.40;64.00;;;;;;6127633;23;19952;-70
2022/09/18 16:55:04;;;;;;;;;;;14.40;64.40;;;;;;6128133;23;19905;-70
2022/09/18 16:57:30;;;;;;;;;;;14.30;64.80;;;;;;6127896;23;19952;-69
2022/09/18 16:59:57;;;;;;;;;;;14.30;64.20;;;;;;6127420;23;19905;-70
2022/09/18 17:02:24;;;;;;;;;;;14.30;65.40;;;;;;6127332;23;20214;-70
2022/09/18 17:04:50;;;;;;;;;;;14.20;65.70;;;;;;6127598;23;19916;-70
2022/09/18 17:07:17;;;;;;;;;;;14.20;65.70;;;;;;6127781;23;20023;-70
2022/09/18 17:09:44;;;;;;;;;;;14.10;65.80;;;;;;6127587;23;19913;-70
2022/09/18 17:12:10;;;;;;;;;;;14.10;66.10;;;;;;6128163;23;19975;-70
2022/09/18 17:14:37;;;;;;;;;;;14.20;65.60;;;;;;6128261;23;20368;-69
2022/09/18 17:17:04;;;;;;;;;;;14.30;64.70;;;;;;6127801;23;20325;-70
2022/09/18 17:19:31;;;;;;;;;;;14.30;64.20;;;;;;6124593;23;19964;-69
2022/09/18 17:21:57;;;;;;;;;;;14.30;64.20;;;;;;6126832;23;20328;-70
2022/09/18 17:24:26;;;;;;;;;;;14.30;64.80;;;;;;6127741;23;19916;-69
2022/09/18 17:26:53;;;;;;;;;;;14.20;65.50;;;;;;6127984;23;19913;-70
2022/09/18 17:29:19;;;;;;;;;;;14.20;65.20;;;;;;6101492;23;20026;-70
2022/09/18 17:31:46;;;;;;;;;;;14.20;65.00;;;;;;6127722;23;20313;-70